Time;durP1;ratioP1;P1;durP2;ratioP2;P2;SDS_P1;SDS_P2;PMS_P1;PMS_P2;Temp;Humidity;BMP_temperature;BMP_pressure;BME280_temperature;BME280_humidity;BME280_pressure;Samples;Min_cycle;Max_cycle;Signal;HPM_P1;HPM_P2
2022/03/19 00:02:02;;;;;;;21.92;13.02;;;;;;;-4.99;83.14;94981.88;5010275;28;20054;-84
2022/03/19 00:04:29;;;;;;;23.80;12.55;;;;;;;-4.97;82.93;94982.63;5009607;28;20065;-84
2022/03/19 00:06:57;;;;;;;18.67;11.85;;;;;;;-4.95;82.25;94980.06;5010497;28;20056;-84
2022/03/19 00:09:25;;;;;;;18.13;11.13;;;;;;;-5.05;82.01;94962.13;5010544;28;20038;-84
2022/03/19 00:11:52;;;;;;;18.90;12.15;;;;;;;-4.94;81.96;94983.38;5010666;28;20050;-84
2022/03/19 00:14:19;;;;;;;20.67;12.20;;;;;;;-5.13;81.86;94959.97;5010478;28;20533;-84
2022/03/19 00:16:46;;;;;;;23.58;12.90;;;;;;;-5.02;81.75;94979.53;5010810;28;20049;-84
2022/03/19 00:19:13;;;;;;;25.17;14.80;;;;;;;-5.01;81.94;94981.16;5010608;28;20045;-84
2022/03/19 00:21:40;;;;;;;28.83;16.50;;;;;;;-5.02;81.80;94978.72;5010328;28;20557;-84
2022/03/19 00:24:08;;;;;;;24.70;15.40;;;;;;;-5.06;82.62;94978.03;5010366;28;20414;-84
2022/03/19 00:26:35;;;;;;;30.40;16.42;;;;;;;-5.10;81.77;94974.03;5010353;28;20050;-84
2022/03/19 00:29:02;;;;;;;30.60;16.98;;;;;;;-5.11;82.16;94970.75;5010279;28;20046;-84
2022/03/19 00:31:29;;;;;;;33.65;18.73;;;;;;;-5.14;82.54;94975.88;5010154;28;20046;-84
2022/03/19 00:33:57;;;;;;;36.88;19.38;;;;;;;-5.12;83.87;94970.81;5009874;28;20050;-84
2022/03/19 00:36:23;;;;;;;35.15;17.98;;;;;;;-5.19;83.42;94965.25;5009634;28;20495;-83
2022/03/19 00:38:50;;;;;;;33.70;18.42;;;;;;;-5.11;83.40;94968.25;5009693;28;20045;-83
2022/03/19 00:41:18;;;;;;;28.67;17.83;;;;;;;-5.07;84.22;94971.41;5010111;28;20057;-84
2022/03/19 00:43:45;;;;;;;28.27;17.20;;;;;;;-5.09;83.44;94973.19;5009927;28;20092;-83
2022/03/19 00:46:13;;;;;;;28.05;15.27;;;;;;;-5.15;82.52;94974.25;5010215;28;20050;-84
2022/03/19 00:48:40;;;;;;;28.25;15.88;;;;;;;-5.19;83.65;94966.97;5009952;28;20387;-84
2022/03/19 00:51:07;;;;;;;24.75;14.57;;;;;;;-5.26;83.52;94972.25;5009919;28;20092;-83
2022/03/19 00:53:34;;;;;;;28.20;17.15;;;;;;;-5.44;83.07;94963.88;5011595;28;20072;-83
2022/03/19 00:56:01;;;;;;;22.75;14.40;;;;;;;-5.42;84.59;94976.31;5013271;28;20525;-83
2022/03/19 00:58:29;;;;;;;24.98;14.90;;;;;;;-5.46;84.21;94975.63;5013179;28;20050;-84
2022/03/19 01:00:56;;;;;;;26.58;14.00;;;;;;;-5.43;83.47;94973.00;4970643;28;1245908;-84
2022/03/19 01:03:23;;;;;;;24.65;15.10;;;;;;;-5.48;83.61;94974.88;5014812;28;20045;-84
2022/03/19 01:05:50;;;;;;;19.60;12.13;;;;;;;-5.57;82.68;94981.13;5014434;28;20056;-84
2022/03/19 01:08:17;;;;;;;21.92;11.93;;;;;;;-5.64;84.46;94980.56;5014622;28;20521;-84
2022/03/19 01:10:44;;;;;;;23.40;13.18;;;;;;;-5.70;84.33;94983.34;5014527;28;20049;-84
2022/03/19 01:13:10;;;;;;;30.45;17.63;;;;;;;-5.79;83.37;94973.75;5013576;28;20050;-84
2022/03/19 01:15:39;;;;;;;25.25;17.13;;;;;;;-5.97;85.91;94957.81;5010175;28;20057;-84
2022/03/19 01:18:06;;;;;;;26.85;18.55;;;;;;;-5.87;86.06;94968.25;5011271;28;20050;-85
2022/03/19 01:20:33;;;;;;;30.67;19.48;;;;;;;-5.87;85.37;94979.06;5012875;28;20046;-84
2022/03/19 01:23:01;;;;;;;31.98;19.13;;;;;;;-5.90;86.30;94974.19;5013723;28;20046;-84
2022/03/19 01:25:28;;;;;;;25.55;17.27;;;;;;;-5.83;86.86;94977.25;5013452;28;20054;-85
2022/03/19 01:27:54;;;;;;;28.08;16.23;;;;;;;-5.83;86.61;94970.53;5013628;28;20491;-84
2022/03/19 01:30:24;;;;;;;20.45;12.80;;;;;;;-5.82;86.02;94969.69;5013745;28;20339;-84
2022/03/19 01:32:52;;;;;;;24.30;14.25;;;;;;;-5.90;85.75;94957.50;5013426;28;20121;-84
2022/03/19 01:35:20;;;;;;;23.05;12.45;;;;;;;-5.92;85.69;94961.72;5013387;28;20052;-85
2022/03/19 01:37:47;;;;;;;25.63;14.73;;;;;;;-5.91;86.74;94965.88;5013296;28;20392;-84
2022/03/19 01:40:16;;;;;;;21.17;12.40;;;;;;;-5.89;85.98;94965.78;5010881;28;20507;-84
2022/03/19 01:42:45;;;;;;;21.58;11.73;;;;;;;-5.88;85.68;94964.13;5013235;28;20088;-84
2022/03/19 01:45:14;;;;;;;22.10;13.70;;;;;;;-5.86;86.04;94964.84;5013053;28;20050;-84
2022/03/19 01:47:41;;;;;;;24.10;14.35;;;;;;;-5.97;85.20;94945.31;5013397;28;20392;-84
2022/03/19 01:50:11;;;;;;;27.77;16.13;;;;;;;-5.93;85.89;94954.31;5013041;28;20530;-85
2022/03/19 01:52:39;;;;;;;30.10;17.05;;;;;;;-6.15;85.47;94919.41;5012970;28;20088;-84
2022/03/19 01:55:07;;;;;;;31.20;16.13;;;;;;;-5.94;86.11;94957.66;5013308;28;20045;-84
2022/03/19 01:57:37;;;;;;;29.45;16.63;;;;;;;-5.92;85.94;94954.22;5010705;28;20046;-82
2022/03/19 02:00:06;;;;;;;30.77;17.40;;;;;;;-5.93;85.89;94960.09;5012869;28;20042;-84
2022/03/19 02:02:33;;;;;;;33.97;19.55;;;;;;;-5.96;86.62;94962.75;5012872;28;20046;-84
2022/03/19 02:05:03;;;;;;;41.65;21.75;;;;;;;-6.05;85.57;94933.97;5012324;28;20058;-84
2022/03/19 02:07:32;;;;;;;36.38;21.45;;;;;;;-6.00;86.47;94942.91;5013070;28;20407;-84
2022/03/19 02:09:59;;;;;;;38.50;21.65;;;;;;;-5.95;86.01;94956.03;5012769;28;20552;-84
2022/03/19 02:12:26;;;;;;;32.72;20.00;;;;;;;-6.02;86.29;94955.50;5012916;28;20046;-84
2022/03/19 02:14:54;;;;;;;29.70;18.17;;;;;;;-6.09;86.47;94936.66;5012649;28;20054;-84
2022/03/19 02:17:21;;;;;;;26.38;15.13;;;;;;;-5.98;85.79;94943.69;5012519;28;20042;-85
2022/03/19 02:19:49;;;;;;;23.45;12.90;;;;;;;-6.01;84.93;94941.31;5012786;28;20070;-84
2022/03/19 02:22:17;;;;;;;21.90;13.00;;;;;;;-6.03;85.71;94946.41;5012704;28;20406;-85
2022/03/19 02:27:31;;;;;;;18.20;11.57;;;;;;;-6.13;85.71;94956.00;5012521;28;20080;-85
2022/03/19 02:29:58;;;;;;;18.98;11.93;;;;;;;-6.21;85.27;94956.31;5012484;28;20077;-84
2022/03/19 02:32:25;;;;;;;24.98;13.57;;;;;;;-6.33;85.69;94946.81;5012606;28;20046;-84
2022/03/19 02:34:52;;;;;;;25.02;15.50;;;;;;;-6.32;86.27;94951.75;5012306;28;20478;-84
2022/03/19 02:37:19;;;;;;;25.60;14.10;;;;;;;-6.29;85.95;94953.31;5012267;28;20103;-84
2022/03/19 02:39:48;;;;;;;37.38;18.77;;;;;;;-6.27;86.61;94950.72;5012177;28;20037;-84
2022/03/19 02:42:17;;;;;;;25.00;14.13;;;;;;;-6.31;85.71;94950.88;5009859;28;20078;-84
2022/03/19 02:44:45;;;;;;;24.98;13.43;;;;;;;-6.44;85.30;94960.56;5011866;28;20062;-84
2022/03/19 02:47:12;;;;;;;26.67;14.90;;;;;;;-6.68;84.79;94946.56;5012246;28;20100;-84
2022/03/19 02:49:39;;;;;;;28.40;17.73;;;;;;;-6.75;86.35;94954.28;5012080;28;20044;-85
2022/03/19 02:52:07;;;;;;;27.55;15.57;;;;;;;-6.71;88.14;94958.28;5012258;28;20117;-84
2022/03/19 02:54:34;;;;;;;27.17;15.07;;;;;;;-6.67;88.46;94956.47;5009378;28;20101;-84
2022/03/19 02:57:03;;;;;;;71.13;39.10;;;;;;;-6.68;88.44;94954.88;5011631;28;20053;-84
2022/03/19 02:59:31;;;;;;;50.42;28.40;;;;;;;-6.68;89.42;94941.56;5011804;28;20541;-85
2022/03/19 03:02:00;;;;;;;41.63;24.98;;;;;;;-6.59;88.98;94952.00;5012064;28;20057;-83
2022/03/19 03:04:28;;;;;;;35.47;20.35;;;;;;;-6.54;89.23;94956.81;5011898;28;20114;-84
2022/03/19 03:06:57;;;;;;;38.42;21.67;;;;;;;-6.47;89.10;94958.19;5009295;28;20469;-84
2022/03/19 03:09:25;;;;;;;38.55;21.00;;;;;;;-6.45;88.33;94946.44;5011719;28;20096;-84
2022/03/19 03:11:53;;;;;;;26.02;15.30;;;;;;;-6.50;87.82;94957.50;5011878;28;20052;-84
2022/03/19 03:14:22;;;;;;;27.27;16.35;;;;;;;-6.66;87.59;94935.63;5011878;28;20045;-84
2022/03/19 03:16:50;;;;;;;27.88;15.40;;;;;;;-6.61;87.33;94946.22;5010775;28;20057;-84
2022/03/19 03:19:18;;;;;;;23.88;15.20;;;;;;;-6.61;88.79;94953.72;5011722;28;20486;-84
2022/03/19 03:21:45;;;;;;;25.10;14.32;;;;;;;-6.58;88.16;94950.31;5011630;28;20041;-83
2022/03/19 03:24:13;;;;;;;24.42;13.60;;;;;;;-6.64;87.88;94953.88;5011231;28;20057;-84
2022/03/19 03:26:40;;;;;;;22.45;14.25;;;;;;;-6.77;88.14;94936.06;5011604;28;20112;-84
2022/03/19 03:29:07;;;;;;;23.85;14.32;;;;;;;-6.65;88.59;94946.44;5011302;28;20513;-84
2022/03/19 03:31:36;;;;;;;28.45;15.52;;;;;;;-6.68;88.79;94952.38;5009049;28;20058;-85
2022/03/19 03:34:03;;;;;;;25.38;13.30;;;;;;;-6.70;88.28;94951.63;5011409;28;20101;-85
2022/03/19 03:36:30;;;;;;;25.67;15.80;;;;;;;-6.77;88.31;94945.25;5011097;28;20054;-83
2022/03/19 03:38:57;;;;;;;28.27;16.45;;;;;;;-6.76;88.02;94940.16;5011332;28;20042;-85
2022/03/19 03:41:24;;;;;;;27.77;17.00;;;;;;;-6.86;88.07;94946.41;5011243;28;20108;-85
2022/03/19 03:43:51;;;;;;;36.50;21.45;;;;;;;-6.91;88.66;94948.28;5011360;28;20046;-84
2022/03/19 03:46:17;;;;;;;30.83;17.77;;;;;;;-6.94;89.43;94943.41;5011344;28;20057;-83
2022/03/19 03:48:46;;;;;;;33.30;19.85;;;;;;;-6.90;90.31;94942.41;5010952;28;20505;-83
2022/03/19 03:51:13;;;;;;;38.97;21.10;;;;;;;-6.92;90.56;94939.16;5010662;28;20053;-83
2022/03/19 03:53:41;;;;;;;43.75;23.33;;;;;;;-6.94;90.50;94931.75;5011118;28;20046;-84
2022/03/19 03:56:10;;;;;;;31.85;18.67;;;;;;;-6.88;90.66;94948.16;5010882;28;20042;-84
2022/03/19 03:58:37;;;;;;;31.02;16.95;;;;;;;-6.90;90.49;94940.72;5008755;28;20132;-84
2022/03/19 04:01:04;;;;;;;26.67;15.75;;;;;;;-6.93;90.64;94945.03;5010927;28;20057;-84
2022/03/19 04:03:31;;;;;;;32.22;18.13;;;;;;;-6.90;90.23;94947.41;5011145;28;20640;-84
2022/03/19 04:05:59;;;;;;;32.40;16.05;;;;;;;-6.93;91.01;94942.53;5011097;28;20053;-84
2022/03/19 04:08:26;;;;;;;36.30;18.02;;;;;;;-6.98;90.82;94933.53;5011209;28;20053;-84
2022/03/19 04:10:52;;;;;;;33.05;18.50;;;;;;;-6.95;90.20;94945.06;5011538;28;20050;-84
2022/03/19 04:13:19;;;;;;;30.45;17.73;;;;;;;-6.94;90.26;94940.91;5011312;28;20050;-84
2022/03/19 04:15:47;;;;;;;32.17;16.15;;;;;;;-6.91;91.18;94948.28;5011200;28;20053;-84
2022/03/19 04:18:13;;;;;;;33.83;17.65;;;;;;;-6.92;91.40;94949.97;5011193;28;20052;-84
2022/03/19 04:20:41;;;;;;;35.85;19.23;;;;;;;-6.92;90.66;94952.47;5011016;28;20054;-84
2022/03/19 04:23:09;;;;;;;47.13;22.88;;;;;;;-6.96;90.06;94948.47;5011387;28;20053;-84
2022/03/19 04:25:36;;;;;;;36.10;18.70;;;;;;;-6.97;89.99;94946.84;5011122;28;20062;-84
2022/03/19 04:28:04;;;;;;;29.80;18.17;;;;;;;-6.95;89.65;94952.56;5011006;28;20494;-84
2022/03/19 04:30:31;;;;;;;28.08;16.92;;;;;;;-7.00;89.84;94950.25;5010998;28;20046;-84
2022/03/19 04:32:59;;;;;;;29.67;16.52;;;;;;;-7.02;89.80;94947.03;5010823;28;20061;-84
2022/03/19 04:38:13;;;;;;;32.88;16.50;;;;;;;-7.15;90.58;94945.84;4970937;28;20159;-84
2022/03/19 04:40:41;;;;;;;28.20;15.90;;;;;;;-7.17;89.70;94945.91;5011036;28;20108;-84
2022/03/19 04:43:08;;;;;;;28.48;15.98;;;;;;;-7.15;90.98;94943.34;5010744;28;20589;-84
2022/03/19 04:45:35;;;;;;;32.70;16.42;;;;;;;-7.09;91.13;94947.31;5010672;28;20050;-84
2022/03/19 04:48:03;;;;;;;29.42;16.38;;;;;;;-7.25;90.88;94917.94;5010832;28;20069;-84
2022/03/19 04:50:30;;;;;;;23.67;14.68;;;;;;;-6.99;90.94;94948.59;5010889;28;20065;-84
2022/03/19 04:52:57;;;;;;;27.48;14.05;;;;;;;-7.02;89.58;94951.19;5010899;28;20057;-84
2022/03/19 04:55:26;;;;;;;30.67;18.27;;;;;;;-7.02;90.28;94944.53;5010528;28;20418;-84
2022/03/19 04:57:52;;;;;;;34.55;20.27;;;;;;;-7.04;90.10;94950.44;5007600;28;20096;-84
2022/03/19 05:00:20;;;;;;;35.25;20.10;;;;;;;-7.00;91.03;94957.75;5009801;28;20123;-84
2022/03/19 05:02:47;;;;;;;24.85;14.95;;;;;;;-6.95;90.04;94960.06;5010845;28;20052;-83
2022/03/19 05:05:14;;;;;;;28.42;14.23;;;;;;;-7.04;89.77;94938.75;5010716;28;20640;-85
2022/03/19 05:07:40;;;;;;;25.85;14.23;;;;;;;-6.92;89.58;94957.47;5010703;28;20054;-85
2022/03/19 05:12:55;;;;;;;29.48;15.30;;;;;;;-7.03;88.85;94935.38;5009137;28;20068;-85
2022/03/19 05:15:22;;;;;;;32.00;16.73;;;;;;;-6.89;88.57;94944.84;5009291;28;20490;-84
2022/03/19 05:17:49;;;;;;;27.58;16.45;;;;;;;-6.83;88.27;94956.28;5010488;28;20057;-85
2022/03/19 05:20:16;;;;;;;33.55;19.00;;;;;;;-6.86;88.89;94937.22;5010432;28;20053;-85
2022/03/19 05:22:43;;;;;;;39.38;21.83;;;;;;;-6.70;88.53;94954.13;5009808;28;20057;-85
2022/03/19 05:25:10;;;;;;;34.40;20.33;;;;;;;-6.59;88.40;94953.69;5009831;28;20096;-85
2022/03/19 05:27:38;;;;;;;37.85;22.52;;;;;;;-6.49;88.44;94951.66;5005049;28;20053;-85
2022/03/19 05:30:08;;;;;;;40.15;23.27;;;;;;;-6.36;88.27;94960.25;5009832;28;20138;-85
2022/03/19 05:32:34;;;;;;;31.20;18.23;;;;;;;-6.42;87.98;94923.00;5010389;28;20042;-85
2022/03/19 05:35:02;;;;;;;30.83;17.15;;;;;;;-6.10;87.81;94947.53;5009048;28;20442;-85
2022/03/19 05:37:29;;;;;;;24.80;15.93;;;;;;;-5.98;87.41;94951.19;5008130;28;20050;-85
2022/03/19 05:39:56;;;;;;;29.05;16.25;;;;;;;-5.85;87.41;94948.94;5012207;28;20486;-85
2022/03/19 05:42:24;;;;;;;28.33;15.88;;;;;;;-5.85;87.60;94917.25;5013958;28;20065;-85
2022/03/19 05:44:51;;;;;;;32.63;18.17;;;;;;;-5.49;87.47;94948.22;5013543;28;20046;-85
2022/03/19 05:47:19;;;;;;;33.97;19.20;;;;;;;-5.42;86.29;94927.03;5012272;28;20394;-85
2022/03/19 05:49:46;;;;;;;34.42;18.73;;;;;;;-5.15;85.85;94931.66;5013948;28;20045;-84
2022/03/19 05:52:13;;;;;;;48.90;23.83;;;;;;;-4.92;85.78;94944.81;5013188;28;20050;-84
2022/03/19 05:54:39;;;;;;;49.58;28.10;;;;;;;-4.70;84.64;94946.31;5013464;28;20046;-84
2022/03/19 05:57:06;;;;;;;116.25;47.53;;;;;;;-4.52;83.96;94947.13;5013857;28;20050;-84
2022/03/19 05:59:33;;;;;;;50.75;25.40;;;;;;;-4.31;83.90;94945.28;5013702;28;20057;-84
2022/03/19 06:02:00;;;;;;;61.83;32.10;;;;;;;-4.11;82.39;94943.47;5013560;28;20494;-84
2022/03/19 06:04:28;;;;;;;62.58;33.20;;;;;;;-3.83;82.03;94947.09;5013426;28;20050;-85
2022/03/19 06:06:55;;;;;;;54.38;28.95;;;;;;;-3.63;80.52;94945.25;5013352;28;20113;-85
2022/03/19 06:09:22;;;;;;;50.53;25.02;;;;;;;-3.42;80.90;94940.81;5013438;28;20053;-86
2022/03/19 06:11:49;;;;;;;50.92;26.67;;;;;;;-3.19;78.09;94943.81;5013378;28;20057;-85
2022/03/19 06:14:15;;;;;;;58.33;28.35;;;;;;;-2.93;77.85;94945.81;5013449;28;20050;-85
2022/03/19 06:16:42;;;;;;;53.42;28.33;;;;;;;-2.68;76.36;94947.78;5013304;28;20050;-85
2022/03/19 06:19:09;;;;;;;119.93;63.15;;;;;;;-2.68;74.50;94912.56;5013109;28;20053;-86
2022/03/19 06:21:39;;;;;;;85.07;48.88;;;;;;;-2.37;74.67;94923.41;5013062;28;20136;-86
2022/03/19 06:24:07;;;;;;;71.38;40.15;;;;;;;-2.03;72.73;94944.13;5013388;28;20133;-86
2022/03/19 06:26:34;;;;;;;55.67;31.08;;;;;;;-1.79;71.26;94946.13;5012926;28;20510;-86
2022/03/19 06:29:03;;;;;;;40.63;22.05;;;;;;;-1.75;66.95;94939.97;5013140;28;20410;-86
2022/03/19 06:31:30;;;;;;;31.98;18.45;;;;;;;-1.76;65.80;94940.88;5011485;28;20116;-85
2022/03/19 06:33:57;;;;;;;37.70;22.05;;;;;;;-1.68;68.26;94942.13;5012978;28;20049;-85
2022/03/19 06:39:09;;;;;;;40.00;22.25;;;;;;;-1.30;69.23;94940.75;5013060;28;20061;-85
2022/03/19 06:41:36;;;;;;;49.30;25.50;;;;;;;-1.29;68.26;94910.38;5012702;28;20565;-85
2022/03/19 06:44:03;;;;;;;45.30;23.42;;;;;;;-1.88;66.78;94907.16;5012730;28;20042;-85
2022/03/19 06:46:30;;;;;;;45.13;22.17;;;;;;;-2.11;69.37;94956.34;5012505;28;20050;-86
2022/03/19 06:48:57;;;;;;;45.65;24.25;;;;;;;-2.29;71.05;94930.53;5012647;28;20495;-85
2022/03/19 06:51:24;;;;;;;50.45;25.17;;;;;;;-2.14;71.60;94954.00;5011362;28;20486;-86
2022/03/19 06:53:51;;;;;;;55.15;27.30;;;;;;;-2.12;73.28;94928.75;5012950;28;20054;-86
2022/03/19 06:56:21;;;;;;;44.08;22.80;;;;;;;-1.90;74.03;94933.34;5012495;28;20581;-87
2022/03/19 06:58:52;;;;;;;38.38;17.77;;;;;;;-1.44;72.79;94951.66;5012557;28;20054;-87
2022/03/19 07:01:29;;;;;;;35.95;17.00;;;;;;;-2.10;69.95;94839.63;5012408;28;20417;-87
2022/03/19 07:04:13;;;;;;;39.88;17.25;;;;;;;-1.69;70.96;94844.78;5012458;28;20045;-88
2022/03/19 07:06:42;;;;;;;52.20;20.00;;;;;;;-0.61;68.52;94942.41;5011912;28;20054;-88
2022/03/19 07:09:15;;;;;;;59.13;21.00;;;;;;;-0.85;65.29;94888.34;5012600;28;20057;-88
2022/03/19 07:19:42;;;;;;;;;;;;;;;;;;;;;
2022/03/19 07:29:19;;;;;;;45.15;17.98;;;;;;;-0.63;56.54;94858.38;4876336;29;20493;-88
2022/03/19 07:32:04;;;;;;;19.30;12.33;;;;;;;-0.18;52.76;94926.19;4876226;29;20467;-82
2022/03/19 07:34:39;;;;;;;22.33;13.50;;;;;;;-0.37;50.79;94919.78;4875678;29;20139;-90
2022/03/19 07:37:06;;;;;;;22.88;12.93;;;;;;;-0.28;50.11;94936.88;4914212;29;20060;-83
2022/03/19 07:39:32;;;;;;;17.60;11.27;;;;;;;-0.30;48.82;94942.94;4951210;28;20047;-82
2022/03/19 07:42:00;;;;;;;15.43;10.05;;;;;;;-0.48;49.61;94920.50;4951152;28;20563;-84
2022/03/19 07:44:27;;;;;;;16.00;10.95;;;;;;;-0.39;49.85;94939.28;4956190;28;20086;-87
2022/03/19 07:47:06;;;;;;;;;;;;;;;;;;;;;
2022/03/19 07:49:33;;;;;;;17.05;10.95;;;;;;;-0.28;48.76;94936.06;5010783;28;20080;-82
2022/03/19 07:52:12;;;;;;;18.55;11.70;;;;;;;-0.06;48.21;94944.75;5012628;28;20089;-85
2022/03/19 07:55:10;;;;;;;15.00;9.43;;;;;;;-0.25;47.25;94930.00;5004578;28;20077;-91
2022/03/19 07:57:54;;;;;;;;;;;;;;;;;;;;;
2022/03/19 08:00:32;;;;;;;17.15;10.40;;;;;;;0.01;49.04;94946.00;4986145;28;20065;-92
2022/03/19 08:02:59;;;;;;;17.02;10.73;;;;;;;-0.55;47.99;94889.78;4991502;28;20046;-86
2022/03/19 08:05:42;;;;;;;16.88;10.30;;;;;;;-0.15;47.67;94941.94;4991760;28;20046;-91
2022/03/19 08:14:22;;;;;;;24.20;13.90;;;;;;;0.17;49.08;94957.59;4807305;29;20583;-89
2022/03/19 08:16:49;;;;;;;14.50;9.90;;;;;;;0.39;47.87;94944.34;4893856;29;20066;-83
2022/03/19 08:19:30;;;;;;;;;;;;;;;;;;;;;
2022/03/19 08:22:03;;;;;;;17.35;10.32;;;;;;;0.51;47.29;94946.03;4993757;28;20054;-91
2022/03/19 08:27:50;;;;;;;15.93;10.65;;;;;;;0.41;48.93;94929.06;5012246;28;20045;-87
2022/03/19 08:30:24;;;;;;;13.63;9.38;;;;;;;0.18;47.13;94931.44;5010804;28;20418;-90
2022/03/19 08:33:01;;;;;;;;;;;;;;;;;;;;;
2022/03/19 08:35:32;;;;;;;16.75;10.85;;;;;;;0.13;47.95;94936.78;5007415;28;20056;-90
2022/03/19 08:41:05;;;;;;;;;;;;;;;;;;;;;
2022/03/19 08:43:33;;;;;;;16.05;10.50;;;;;;;0.66;47.78;94933.25;5005474;28;20049;-89
2022/03/19 08:46:02;;;;;;;18.17;11.35;;;;;;;1.05;47.00;94935.63;5010480;28;20049;-87
2022/03/19 08:48:28;;;;;;;15.13;9.70;;;;;;;1.22;46.74;94939.50;5010776;28;20058;-88
2022/03/19 08:51:39;;;;;;;16.83;10.27;;;;;;;0.96;46.68;94944.69;5010870;28;20050;-92
2022/03/19 08:53:47;;;;;;;16.42;10.55;;;;;;;0.78;47.36;94934.09;5009855;28;20083;-89
2022/03/19 08:56:13;;;;;;;14.82;10.07;;;;;;;1.27;48.53;94922.28;4991230;28;20058;-86
2022/03/19 08:58:43;;;;;;;15.95;10.93;;;;;;;1.46;45.75;94916.69;4991188;28;20097;-89
2022/03/19 09:01:13;;;;;;;13.45;8.95;;;;;;;1.50;45.41;94940.06;4990809;28;20421;-90
2022/03/19 09:03:41;;;;;;;14.57;9.25;;;;;;;0.66;45.05;94923.13;4990902;28;20042;-89
2022/03/19 09:06:13;;;;;;;16.85;8.63;;;;;;;0.38;46.39;94935.94;4991090;28;20054;-90
2022/03/19 09:08:39;;;;;;;14.60;9.75;;;;;;;0.32;45.88;94926.22;4991485;28;20097;-87
2022/03/19 09:11:06;;;;;;;14.35;9.55;;;;;;;0.71;46.54;94928.69;4991485;28;20454;-87
2022/03/19 09:13:39;;;;;;;15.85;9.60;;;;;;;0.58;44.68;94907.66;4991065;28;20050;-87
2022/03/19 09:16:07;;;;;;;15.38;9.52;;;;;;;1.23;46.20;94917.53;4994732;28;20046;-86
2022/03/19 09:18:38;;;;;;;13.63;9.77;;;;;;;1.20;44.29;94931.19;4994995;28;20054;-85
2022/03/19 09:21:11;;;;;;;13.25;8.88;;;;;;;0.95;44.91;94920.28;4995313;28;20093;-90
2022/03/19 09:23:47;;;;;;;15.35;9.25;;;;;;;1.24;44.94;94925.00;5014476;28;20096;-87
2022/03/19 09:26:14;;;;;;;20.52;12.60;;;;;;;1.34;44.83;94904.91;5014469;28;20050;-85
2022/03/19 09:28:47;;;;;;;17.58;10.52;;;;;;;1.77;45.26;94918.72;5016349;28;20046;-86
2022/03/19 09:31:15;;;;;;;16.00;10.80;;;;;;;1.52;45.05;94917.19;5018660;28;20046;-85
2022/03/19 09:33:45;;;;;;;16.08;10.55;;;;;;;0.78;45.90;94909.63;5014715;28;20041;-88
2022/03/19 09:36:12;;;;;;;28.05;14.98;;;;;;;0.30;47.54;94909.56;5015024;28;20050;-88
2022/03/19 09:38:40;;;;;;;20.92;11.43;;;;;;;0.63;47.87;94913.22;5014530;28;20050;-85
2022/03/19 09:41:17;;;;;;;;;;;;;;;;;;;;;
2022/03/19 09:43:44;;;;;;;17.33;10.80;;;;;;;1.68;44.56;94922.75;5010193;28;20053;-86
2022/03/19 09:46:11;;;;;;;18.90;12.50;;;;;;;1.87;45.70;94911.25;5014091;28;20069;-84
2022/03/19 09:48:53;;;;;;;18.08;10.93;;;;;;;2.35;44.63;94914.47;5013871;28;20081;-88
2022/03/19 09:51:22;;;;;;;16.45;10.32;;;;;;;1.48;45.14;94913.25;5014090;28;20112;-84
2022/03/19 09:53:56;;;;;;;13.27;9.23;;;;;;;1.46;43.70;94900.69;5013563;28;20100;-86
2022/03/19 09:56:22;;;;;;;26.25;15.43;;;;;;;1.90;44.08;94908.47;5013672;28;20584;-86
2022/03/19 09:58:52;;;;;;;15.50;9.77;;;;;;;1.76;44.13;94912.03;5013754;28;20061;-86
2022/03/19 10:01:19;;;;;;;19.67;11.50;;;;;;;2.25;44.27;94904.22;5013666;28;20049;-84
2022/03/19 10:03:48;;;;;;;19.40;11.65;;;;;;;2.41;44.81;94896.28;5013517;28;20046;-84
2022/03/19 10:09:02;;;;;;;17.90;10.63;;;;;;;1.72;43.80;94911.44;5013512;28;20069;-86
2022/03/19 10:11:38;;;;;;;15.07;9.52;;;;;;;2.02;44.65;94868.75;5013835;28;20140;-88
2022/03/19 10:14:05;;;;;;;;;;;;;;;2.39;44.66;94904.00;5013962;28;20041;-85
2022/03/19 10:16:38;;;;;;;15.38;9.98;;;;;;;2.63;44.15;94897.94;5013257;28;20020;-87
2022/03/19 10:19:12;;;;;;;15.57;9.55;;;;;;;2.69;43.52;94904.31;5013359;28;20053;-87
2022/03/19 10:21:41;;;;;;;15.38;8.98;;;;;;;3.00;44.55;94888.41;5013294;28;20469;-83
2022/03/19 10:24:09;;;;;;;14.48;9.10;;;;;;;2.98;43.00;94896.13;5013512;28;20054;-85
2022/03/19 10:26:39;;;;;;;17.67;11.35;;;;;;;2.29;42.88;94918.28;5012939;28;20046;-87
2022/03/19 10:29:07;;;;;;;15.25;10.63;;;;;;;1.84;44.80;94907.22;5012833;28;20656;-87
2022/03/19 10:31:35;;;;;;;14.82;9.43;;;;;;;1.57;44.78;94898.19;5012575;28;20499;-85
2022/03/19 10:34:09;;;;;;;13.65;9.88;;;;;;;1.40;45.88;94838.66;5013239;28;20053;-90
2022/03/19 10:36:37;;;;;;;16.73;11.00;;;;;;;2.23;45.31;94889.13;5013026;28;20057;-81
2022/03/19 10:39:13;;;;;;;15.57;10.38;;;;;;;2.22;43.65;94899.41;5012753;28;20045;-87
2022/03/19 10:41:51;;;;;;;;;;;;;;;;;;;;;
2022/03/19 10:44:20;;;;;;;16.00;10.75;;;;;;;2.54;46.21;94880.91;5012822;28;20060;-84
2022/03/19 10:46:49;;;;;;;26.50;15.10;;;;;;;2.33;44.22;94850.38;5012742;28;20061;-86
2022/03/19 10:49:23;;;;;;;29.05;14.82;;;;;;;2.62;43.08;94895.53;5012646;28;20200;-89
2022/03/19 10:51:53;;;;;;;24.90;14.57;;;;;;;2.85;43.51;94882.78;5012539;28;20054;-85
2022/03/19 10:54:23;;;;;;;22.55;14.85;;;;;;;2.64;44.01;94888.63;5012406;28;20494;-86
2022/03/19 10:56:52;;;;;;;29.42;14.60;;;;;;;2.02;44.09;94858.59;5012822;28;20057;-84
2022/03/19 10:59:20;;;;;;;19.35;11.43;;;;;;;2.54;43.46;94885.97;5012579;28;20053;-83
2022/03/19 11:01:49;;;;;;;15.85;9.82;;;;;;;2.52;44.40;94875.16;5012191;28;20105;-82
2022/03/19 11:04:19;;;;;;;18.95;11.38;;;;;;;2.13;43.48;94866.19;5012400;28;20065;-91
2022/03/19 11:06:55;;;;;;;19.65;10.82;;;;;;;2.27;44.72;94860.06;5012213;28;20137;-86
2022/03/19 11:09:27;;;;;;;15.52;8.73;;;;;;;2.71;43.42;94877.06;5010917;28;20049;-88
2022/03/19 11:11:57;;;;;;;13.70;8.68;;;;;;;2.48;43.48;94869.50;5012326;28;20042;-85
2022/03/19 11:14:27;;;;;;;14.70;9.20;;;;;;;2.41;43.63;94840.47;5012171;28;20054;-84
2022/03/19 11:19:46;;;;;;;12.73;7.85;;;;;;;3.10;43.27;94855.47;5012271;28;20161;-85
2022/03/19 11:22:15;;;;;;;43.22;25.25;;;;;;;2.87;43.59;94853.03;5011927;28;20046;-90
2022/03/19 11:25:04;;;;;;;32.38;18.02;;;;;;;2.28;43.69;94865.97;5012023;28;20128;-86
2022/03/19 11:27:34;;;;;;;44.63;27.23;;;;;;;2.55;43.57;94854.63;5011889;28;20125;-85
2022/03/19 11:30:01;;;;;;;36.15;23.15;;;;;;;2.65;43.66;94847.09;5012228;28;20046;-85
2022/03/19 11:32:38;;;;;;;12.68;8.30;;;;;;;2.18;43.17;94853.16;5012074;28;20176;-90
2022/03/19 11:35:15;;;;;;;14.27;8.02;;;;;;;2.19;43.52;94836.25;5012020;28;20074;-89
2022/03/19 11:38:01;;;;;;;12.77;8.57;;;;;;;2.45;43.19;94841.03;5011007;28;20052;-84
2022/03/19 11:40:38;;;;;;;13.77;7.57;;;;;;;2.31;42.16;94809.13;5010974;28;20140;-88
2022/03/19 11:43:07;;;;;;;13.38;7.60;;;;;;;2.89;42.91;94834.22;5011892;28;20104;-84
2022/03/19 11:45:54;;;;;;;12.38;8.00;;;;;;;2.89;42.99;94816.44;5011963;28;20128;-89
2022/03/19 11:48:41;;;;;;;10.13;7.03;;;;;;;3.00;42.17;94819.88;5011463;28;20085;-86
2022/03/19 11:51:22;;;;;;;13.38;7.68;;;;;;;2.72;42.14;94786.53;5011566;28;20054;-85
2022/03/19 11:53:56;;;;;;;10.95;6.93;;;;;;;3.06;41.09;94834.59;5011591;28;20054;-87
2022/03/19 11:56:26;;;;;;;10.93;7.00;;;;;;;2.50;41.44;94832.13;5013162;28;20053;-87
2022/03/19 11:58:56;;;;;;;13.63;7.68;;;;;;;2.02;43.49;94754.69;5011701;28;20053;-86
2022/03/19 12:01:55;;;;;;;12.93;7.90;;;;;;;2.64;43.66;94820.13;5011487;28;20061;-85
2022/03/19 12:04:24;;;;;;;11.00;7.60;;;;;;;2.69;42.74;94819.75;5011588;28;20050;-86
2022/03/19 12:06:57;;;;;;;9.60;6.15;;;;;;;1.76;41.35;94767.59;5012431;28;20137;-86
2022/03/19 12:09:32;;;;;;;15.25;8.90;;;;;;;1.76;43.64;94830.94;5011275;28;20054;-86
2022/03/19 12:12:24;;;;;;;10.27;7.93;;;;;;;1.88;44.00;94831.75;5011442;28;20134;-85
2022/03/19 12:14:54;;;;;;;14.50;8.38;;;;;;;1.24;44.86;94745.28;5011283;28;20050;-86
2022/03/19 12:17:23;;;;;;;16.80;7.57;;;;;;;1.50;44.51;94831.19;5010940;28;20106;-87
2022/03/19 12:19:55;;;;;;;11.55;8.05;;;;;;;1.38;44.42;94827.03;5011183;28;20045;-86
2022/03/19 12:22:33;;;;;;;13.48;8.48;;;;;;;1.53;45.76;94823.34;5011240;28;20050;-86
2022/03/19 12:25:23;;;;;;;14.15;8.80;;;;;;;1.70;45.32;94821.28;5011043;28;20049;-84
2022/03/19 12:27:54;;;;;;;14.48;8.90;;;;;;;2.08;45.57;94812.50;5011038;28;20085;-86